sensor_id;sensor_type;location;lat;lon;timestamp;pressure;altitude;pressure_sealevel;temperature;humidity
10606;BME280;5350;42.698;23.148;2022-09-09T00:01:19;93896.44;;;16.64;100.00
10606;BME280;5350;42.698;23.148;2022-09-09T00:03:52;93890.34;;;16.64;100.00
10606;BME280;5350;42.698;23.148;2022-09-09T00:06:21;93885.81;;;16.64;100.00
10606;BME280;5350;42.698;23.148;2022-09-09T00:08:53;93878.94;;;16.63;100.00
10606;BME280;5350;42.698;23.148;2022-09-09T00:11:26;93881.63;;;16.46;100.00
10606;BME280;5350;42.698;23.148;2022-09-09T00:13:54;93883.38;;;16.42;100.00
10606;BME280;5350;42.698;23.148;2022-09-09T00:16:25;93882.56;;;16.42;100.00
10606;BME280;5350;42.698;23.148;2022-09-09T00:18:55;93874.31;;;16.43;100.00
10606;BME280;5350;42.698;23.148;2022-09-09T00:21:24;93871.66;;;16.52;100.00
10606;BME280;5350;42.698;23.148;2022-09-09T00:23:53;93857.94;;;16.41;100.00
10606;BME280;5350;42.698;23.148;2022-09-09T00:26:21;93857.22;;;16.15;100.00
10606;BME280;5350;42.698;23.148;2022-09-09T00:28:50;93848.00;;;16.21;100.00
10606;BME280;5350;42.698;23.148;2022-09-09T00:31:20;93849.25;;;16.24;100.00
10606;BME280;5350;42.698;23.148;2022-09-09T00:33:50;93846.81;;;16.10;100.00
10606;BME280;5350;42.698;23.148;2022-09-09T00:36:18;93851.28;;;16.18;100.00
10606;BME280;5350;42.698;23.148;2022-09-09T00:38:48;93852.84;;;16.19;100.00
10606;BME280;5350;42.698;23.148;2022-09-09T00:41:18;93850.88;;;15.99;100.00
10606;BME280;5350;42.698;23.148;2022-09-09T00:43:48;93849.91;;;16.12;100.00
10606;BME280;5350;42.698;23.148;2022-09-09T00:49:08;93847.88;;;16.09;100.00
10606;BME280;5350;42.698;23.148;2022-09-09T00:51:43;93854.78;;;16.02;100.00
10606;BME280;5350;42.698;23.148;2022-09-09T00:54:16;93855.06;;;16.00;100.00
10606;BME280;5350;42.698;23.148;2022-09-09T00:56:53;93860.38;;;16.09;100.00
10606;BME280;5350;42.698;23.148;2022-09-09T00:59:25;93862.88;;;16.05;100.00
10606;BME280;5350;42.698;23.148;2022-09-09T01:01:54;93858.97;;;16.11;100.00
10606;BME280;5350;42.698;23.148;2022-09-09T01:04:24;93854.13;;;16.13;100.00
10606;BME280;5350;42.698;23.148;2022-09-09T01:06:55;93842.28;;;16.02;100.00
10606;BME280;5350;42.698;23.148;2022-09-09T01:09:26;93852.63;;;15.95;100.00
10606;BME280;5350;42.698;23.148;2022-09-09T01:11:57;93856.06;;;15.95;100.00
10606;BME280;5350;42.698;23.148;2022-09-09T01:14:30;93858.34;;;16.06;100.00
10606;BME280;5350;42.698;23.148;2022-09-09T01:16:59;93859.47;;;15.96;100.00
10606;BME280;5350;42.698;23.148;2022-09-09T01:19:33;93857.88;;;16.12;100.00
10606;BME280;5350;42.698;23.148;2022-09-09T01:22:06;93853.06;;;15.97;100.00
10606;BME280;5350;42.698;23.148;2022-09-09T01:24:40;93861.50;;;15.90;100.00
10606;BME280;5350;42.698;23.148;2022-09-09T01:27:13;93851.38;;;15.75;100.00
10606;BME280;5350;42.698;23.148;2022-09-09T01:29:41;93858.88;;;15.82;100.00
10606;BME280;5350;42.698;23.148;2022-09-09T01:34:49;93873.53;;;15.79;100.00
10606;BME280;5350;42.698;23.148;2022-09-09T01:37:16;93867.00;;;15.77;100.00
10606;BME280;5350;42.698;23.148;2022-09-09T01:39:43;93873.41;;;15.76;100.00
10606;BME280;5350;42.698;23.148;2022-09-09T01:42:12;93866.69;;;15.78;100.00
10606;BME280;5350;42.698;23.148;2022-09-09T01:44:41;93866.56;;;15.66;100.00
10606;BME280;5350;42.698;23.148;2022-09-09T01:47:07;93865.44;;;15.76;100.00
10606;BME280;5350;42.698;23.148;2022-09-09T01:49:34;93861.88;;;15.55;100.00
10606;BME280;5350;42.698;23.148;2022-09-09T01:52:01;93863.44;;;15.64;100.00
10606;BME280;5350;42.698;23.148;2022-09-09T01:54:28;93859.88;;;15.52;100.00
10606;BME280;5350;42.698;23.148;2022-09-09T01:56:59;93868.75;;;15.64;100.00
10606;BME280;5350;42.698;23.148;2022-09-09T01:59:38;93867.63;;;15.57;100.00
10606;BME280;5350;42.698;23.148;2022-09-09T02:02:10;93861.25;;;15.58;100.00
10606;BME280;5350;42.698;23.148;2022-09-09T02:04:38;93859.53;;;15.62;100.00
10606;BME280;5350;42.698;23.148;2022-09-09T02:07:06;93859.53;;;15.62;100.00
10606;BME280;5350;42.698;23.148;2022-09-09T02:09:36;93856.69;;;15.67;100.00
10606;BME280;5350;42.698;23.148;2022-09-09T02:12:05;93854.03;;;15.75;100.00
10606;BME280;5350;42.698;23.148;2022-09-09T02:14:35;93858.28;;;15.51;100.00
10606;BME280;5350;42.698;23.148;2022-09-09T02:17:07;93861.41;;;15.53;100.00
10606;BME280;5350;42.698;23.148;2022-09-09T02:19:36;93854.56;;;15.52;100.00
10606;BME280;5350;42.698;23.148;2022-09-09T02:22:04;93862.66;;;15.64;100.00
10606;BME280;5350;42.698;23.148;2022-09-09T02:24:31;93863.91;;;15.75;100.00
10606;BME280;5350;42.698;23.148;2022-09-09T02:26:59;93868.44;;;15.57;100.00
10606;BME280;5350;42.698;23.148;2022-09-09T02:29:29;93868.56;;;15.27;100.00
10606;BME280;5350;42.698;23.148;2022-09-09T02:31:58;93866.53;;;15.41;100.00
10606;BME280;5350;42.698;23.148;2022-09-09T02:34:28;93875.75;;;15.35;100.00
10606;BME280;5350;42.698;23.148;2022-09-09T02:36:57;93878.38;;;15.35;100.00
10606;BME280;5350;42.698;23.148;2022-09-09T02:39:25;93872.31;;;15.34;100.00
10606;BME280;5350;42.698;23.148;2022-09-09T02:41:52;93875.28;;;15.33;100.00
10606;BME280;5350;42.698;23.148;2022-09-09T02:44:19;93876.34;;;15.32;100.00
10606;BME280;5350;42.698;23.148;2022-09-09T02:46:50;93876.69;;;15.47;100.00
10606;BME280;5350;42.698;23.148;2022-09-09T02:49:20;93876.81;;;15.34;100.00
10606;BME280;5350;42.698;23.148;2022-09-09T02:51:51;93875.25;;;15.24;100.00
10606;BME280;5350;42.698;23.148;2022-09-09T02:54:23;93879.78;;;15.23;100.00
10606;BME280;5350;42.698;23.148;2022-09-09T02:56:53;93871.34;;;15.21;100.00
10606;BME280;5350;42.698;23.148;2022-09-09T02:59:21;93866.84;;;15.22;100.00
10606;BME280;5350;42.698;23.148;2022-09-09T03:01:49;93868.88;;;15.34;100.00
10606;BME280;5350;42.698;23.148;2022-09-09T03:04:15;93872.63;;;15.24;100.00
10606;BME280;5350;42.698;23.148;2022-09-09T03:06:42;93870.25;;;15.31;100.00
10606;BME280;5350;42.698;23.148;2022-09-09T03:09:09;93865.72;;;15.14;100.00
10606;BME280;5350;42.698;23.148;2022-09-09T03:11:37;93873.69;;;15.06;100.00
10606;BME280;5350;42.698;23.148;2022-09-09T03:14:04;93871.66;;;15.11;100.00
10606;BME280;5350;42.698;23.148;2022-09-09T03:16:30;93878.84;;;15.19;100.00
10606;BME280;5350;42.698;23.148;2022-09-09T03:18:58;93871.34;;;15.21;100.00
10606;BME280;5350;42.698;23.148;2022-09-09T03:21:24;93866.06;;;15.21;100.00
10606;BME280;5350;42.698;23.148;2022-09-09T03:23:51;93863.72;;;15.20;100.00
10606;BME280;5350;42.698;23.148;2022-09-09T03:26:17;93850.94;;;15.22;100.00
10606;BME280;5350;42.698;23.148;2022-09-09T03:28:45;93849.09;;;15.23;100.00
10606;BME280;5350;42.698;23.148;2022-09-09T03:31:12;93851.72;;;15.23;100.00
10606;BME280;5350;42.698;23.148;2022-09-09T03:33:39;93854.84;;;15.25;100.00
10606;BME280;5350;42.698;23.148;2022-09-09T03:36:06;93860.72;;;14.87;100.00
10606;BME280;5350;42.698;23.148;2022-09-09T03:38:32;93859.19;;;15.03;100.00
10606;BME280;5350;42.698;23.148;2022-09-09T03:40:59;93859.97;;;15.04;100.00
10606;BME280;5350;42.698;23.148;2022-09-09T03:43:27;93860.72;;;14.87;100.00
10606;BME280;5350;42.698;23.148;2022-09-09T03:45:56;93863.03;;;14.72;100.00
10606;BME280;5350;42.698;23.148;2022-09-09T03:48:23;93867.72;;;14.83;100.00
10606;BME280;5350;42.698;23.148;2022-09-09T03:50:50;93871.94;;;14.84;100.00
10606;BME280;5350;42.698;23.148;2022-09-09T03:53:17;93865.09;;;15.00;100.00
10606;BME280;5350;42.698;23.148;2022-09-09T03:55:44;93856.19;;;14.88;100.00
10606;BME280;5350;42.698;23.148;2022-09-09T03:58:11;93871.97;;;14.93;100.00
10606;BME280;5350;42.698;23.148;2022-09-09T04:00:39;93877.38;;;14.88;100.00
10606;BME280;5350;42.698;23.148;2022-09-09T04:03:08;93876.47;;;14.92;100.00
10606;BME280;5350;42.698;23.148;2022-09-09T04:05:35;93877.88;;;14.98;100.00
10606;BME280;5350;42.698;23.148;2022-09-09T04:08:04;93884.13;;;15.19;100.00
10606;BME280;5350;42.698;23.148;2022-09-09T04:10:31;93869.00;;;14.94;100.00
10606;BME280;5350;42.698;23.148;2022-09-09T04:12:57;93863.22;;;14.92;100.00
10606;BME280;5350;42.698;23.148;2022-09-09T04:15:25;93869.13;;;14.72;100.00
10606;BME280;5350;42.698;23.148;2022-09-09T04:17:51;93883.94;;;14.90;100.00
10606;BME280;5350;42.698;23.148;2022-09-09T04:20:19;93870.25;;;14.97;100.00
10606;BME280;5350;42.698;23.148;2022-09-09T04:22:47;93871.31;;;14.87;100.00
10606;BME280;5350;42.698;23.148;2022-09-09T04:25:13;93874.91;;;15.08;100.00
10606;BME280;5350;42.698;23.148;2022-09-09T04:27:40;93878.97;;;14.89;100.00
10606;BME280;5350;42.698;23.148;2022-09-09T04:30:08;93876.63;;;15.04;100.00
10606;BME280;5350;42.698;23.148;2022-09-09T04:32:35;93879.16;;;15.09;100.00
10606;BME280;5350;42.698;23.148;2022-09-09T04:35:02;93890.69;;;15.13;100.00
10606;BME280;5350;42.698;23.148;2022-09-09T04:37:30;93889.13;;;15.30;100.00
10606;BME280;5350;42.698;23.148;2022-09-09T04:39:56;93885.69;;;15.38;100.00
10606;BME280;5350;42.698;23.148;2022-09-09T04:42:23;93888.56;;;15.50;100.00
10606;BME280;5350;42.698;23.148;2022-09-09T04:44:53;93878.25;;;15.57;100.00
10606;BME280;5350;42.698;23.148;2022-09-09T04:47:19;93868.91;;;15.51;100.00
10606;BME280;5350;42.698;23.148;2022-09-09T04:49:46;93869.03;;;15.63;100.00
10606;BME280;5350;42.698;23.148;2022-09-09T04:52:12;93872.47;;;15.72;100.00
10606;BME280;5350;42.698;23.148;2022-09-09T04:54:43;93848.13;;;15.70;100.00
10606;BME280;5350;42.698;23.148;2022-09-09T04:57:11;93862.75;;;15.93;100.00
10606;BME280;5350;42.698;23.148;2022-09-09T04:59:37;93865.06;;;16.03;100.00
10606;BME280;5350;42.698;23.148;2022-09-09T05:02:04;93855.53;;;16.11;100.00
10606;BME280;5350;42.698;23.148;2022-09-09T05:04:30;93855.94;;;16.21;100.00
10606;BME280;5350;42.698;23.148;2022-09-09T05:06:58;93842.03;;;16.33;100.00
10606;BME280;5350;42.698;23.148;2022-09-09T05:09:25;93850.88;;;16.45;100.00
10606;BME280;5350;42.698;23.148;2022-09-09T05:11:52;93855.19;;;16.58;100.00
10606;BME280;5350;42.698;23.148;2022-09-09T05:14:20;93854.53;;;16.70;100.00
10606;BME280;5350;42.698;23.148;2022-09-09T05:16:46;93845.69;;;16.87;100.00
10606;BME280;5350;42.698;23.148;2022-09-09T05:19:15;93853.03;;;16.90;100.00
10606;BME280;5350;42.698;23.148;2022-09-09T05:21:44;93863.44;;;16.95;100.00
10606;BME280;5350;42.698;23.148;2022-09-09T05:24:10;93870.75;;;17.06;100.00
10606;BME280;5350;42.698;23.148;2022-09-09T05:26:37;93876.59;;;17.20;100.00
10606;BME280;5350;42.698;23.148;2022-09-09T05:29:05;93883.03;;;17.31;100.00
10606;BME280;5350;42.698;23.148;2022-09-09T05:31:31;93873.25;;;17.44;100.00
10606;BME280;5350;42.698;23.148;2022-09-09T05:33:58;93882.03;;;17.44;100.00
10606;BME280;5350;42.698;23.148;2022-09-09T05:36:25;93883.44;;;17.42;100.00
10606;BME280;5350;42.698;23.148;2022-09-09T05:38:51;93889.53;;;17.42;100.00
10606;BME280;5350;42.698;23.148;2022-09-09T05:41:18;93886.38;;;17.49;100.00
10606;BME280;5350;42.698;23.148;2022-09-09T05:43:45;93888.66;;;17.59;100.00
10606;BME280;5350;42.698;23.148;2022-09-09T05:46:15;93888.25;;;17.69;100.00
10606;BME280;5350;42.698;23.148;2022-09-09T05:48:42;93886.44;;;17.82;100.00
10606;BME280;5350;42.698;23.148;2022-09-09T05:51:12;93887.59;;;17.93;100.00
10606;BME280;5350;42.698;23.148;2022-09-09T05:53:40;93890.06;;;17.98;100.00
10606;BME280;5350;42.698;23.148;2022-09-09T05:56:08;93890.41;;;18.08;100.00
10606;BME280;5350;42.698;23.148;2022-09-09T05:58:36;93898.00;;;18.18;100.00
10606;BME280;5350;42.698;23.148;2022-09-09T06:01:03;93901.31;;;18.27;100.00
10606;BME280;5350;42.698;23.148;2022-09-09T06:03:31;93896.69;;;18.36;100.00
10606;BME280;5350;42.698;23.148;2022-09-09T06:05:58;93891.41;;;18.49;100.00
10606;BME280;5350;42.698;23.148;2022-09-09T06:08:25;93894.31;;;18.56;100.00
10606;BME280;5350;42.698;23.148;2022-09-09T06:10:51;93903.63;;;18.62;100.00
10606;BME280;5350;42.698;23.148;2022-09-09T06:13:18;93913.66;;;18.65;100.00
10606;BME280;5350;42.698;23.148;2022-09-09T06:15:49;93905.09;;;18.71;100.00
10606;BME280;5350;42.698;23.148;2022-09-09T06:18:16;93906.53;;;18.81;100.00
10606;BME280;5350;42.698;23.148;2022-09-09T06:20:52;93911.22;;;18.96;100.00
10606;BME280;5350;42.698;23.148;2022-09-09T06:23:19;93905.78;;;19.04;100.00
10606;BME280;5350;42.698;23.148;2022-09-09T06:25:45;93905.97;;;19.11;100.00
10606;BME280;5350;42.698;23.148;2022-09-09T06:28:11;93903.53;;;19.19;100.00
10606;BME280;5350;42.698;23.148;2022-09-09T06:30:38;93898.31;;;19.34;100.00
10606;BME280;5350;42.698;23.148;2022-09-09T06:33:05;93891.50;;;19.49;100.00
10606;BME280;5350;42.698;23.148;2022-09-09T06:35:31;93889.56;;;19.61;100.00
10606;BME280;5350;42.698;23.148;2022-09-09T06:37:59;93898.66;;;19.72;100.00
10606;BME280;5350;42.698;23.148;2022-09-09T06:40:26;93900.06;;;19.82;100.00
10606;BME280;5350;42.698;23.148;2022-09-09T06:42:52;93899.44;;;20.01;100.00
10606;BME280;5350;42.698;23.148;2022-09-09T06:45:19;93902.81;;;20.13;100.00
10606;BME280;5350;42.698;23.148;2022-09-09T06:47:45;93907.47;;;20.28;100.00
10606;BME280;5350;42.698;23.148;2022-09-09T06:50:12;93911.03;;;20.48;100.00
10606;BME280;5350;42.698;23.148;2022-09-09T06:52:39;93910.28;;;20.63;100.00
10606;BME280;5350;42.698;23.148;2022-09-09T06:55:07;93916.66;;;20.74;100.00
10606;BME280;5350;42.698;23.148;2022-09-09T06:57:35;93918.47;;;20.86;100.00
10606;BME280;5350;42.698;23.148;2022-09-09T07:00:01;93918.38;;;20.98;100.00
10606;BME280;5350;42.698;23.148;2022-09-09T07:02:28;93925.97;;;21.11;100.00
10606;BME280;5350;42.698;23.148;2022-09-09T07:04:54;93926.22;;;21.22;100.00
10606;BME280;5350;42.698;23.148;2022-09-09T07:07:22;93916.38;;;21.26;100.00
10606;BME280;5350;42.698;23.148;2022-09-09T07:09:50;93908.59;;;21.36;100.00
10606;BME280;5350;42.698;23.148;2022-09-09T07:12:17;93919.88;;;21.45;100.00
10606;BME280;5350;42.698;23.148;2022-09-09T07:14:44;93910.19;;;21.57;100.00
10606;BME280;5350;42.698;23.148;2022-09-09T07:17:10;93901.19;;;21.65;100.00
10606;BME280;5350;42.698;23.148;2022-09-09T07:19:37;93910.38;;;21.83;99.50
10606;BME280;5350;42.698;23.148;2022-09-09T07:22:03;93899.47;;;21.91;96.78
10606;BME280;5350;42.698;23.148;2022-09-09T07:24:31;93907.44;;;22.07;96.88
10606;BME280;5350;42.698;23.148;2022-09-09T07:26:57;93904.72;;;22.26;96.19
10606;BME280;5350;42.698;23.148;2022-09-09T07:29:26;93904.34;;;22.47;92.11
10606;BME280;5350;42.698;23.148;2022-09-09T07:31:52;93909.88;;;22.57;93.67
10606;BME280;5350;42.698;23.148;2022-09-09T07:34:19;93913.00;;;22.59;88.38
10606;BME280;5350;42.698;23.148;2022-09-09T07:36:46;93913.28;;;22.73;89.26
10606;BME280;5350;42.698;23.148;2022-09-09T07:39:13;93912.06;;;22.93;86.27
10606;BME280;5350;42.698;23.148;2022-09-09T07:41:42;93912.69;;;23.10;89.74
10606;BME280;5350;42.698;23.148;2022-09-09T07:44:10;93907.66;;;23.31;85.12
10606;BME280;5350;42.698;23.148;2022-09-09T07:46:39;93915.28;;;23.51;84.04
10606;BME280;5350;42.698;23.148;2022-09-09T07:49:06;93907.09;;;23.70;88.25
10606;BME280;5350;42.698;23.148;2022-09-09T07:51:33;93910.34;;;23.83;82.93
10606;BME280;5350;42.698;23.148;2022-09-09T07:54:01;93914.66;;;23.91;81.17
10606;BME280;5350;42.698;23.148;2022-09-09T07:56:28;93919.22;;;23.87;78.45
10606;BME280;5350;42.698;23.148;2022-09-09T07:58:55;93912.75;;;23.92;79.87
10606;BME280;5350;42.698;23.148;2022-09-09T08:01:24;93916.91;;;24.15;79.10
10606;BME280;5350;42.698;23.148;2022-09-09T08:03:55;93922.75;;;24.24;75.49
10606;BME280;5350;42.698;23.148;2022-09-09T08:06:24;93911.59;;;24.22;77.16
10606;BME280;5350;42.698;23.148;2022-09-09T08:08:51;93915.50;;;24.28;76.93
10606;BME280;5350;42.698;23.148;2022-09-09T08:11:20;93915.19;;;24.33;75.85
10606;BME280;5350;42.698;23.148;2022-09-09T08:13:48;93916.44;;;24.43;75.41
10606;BME280;5350;42.698;23.148;2022-09-09T08:16:16;93903.59;;;24.63;77.54
10606;BME280;5350;42.698;23.148;2022-09-09T08:18:42;93916.88;;;24.85;74.70
10606;BME280;5350;42.698;23.148;2022-09-09T08:21:11;93917.28;;;24.84;73.67
10606;BME280;5350;42.698;23.148;2022-09-09T08:23:38;93908.94;;;24.99;70.71
10606;BME280;5350;42.698;23.148;2022-09-09T08:26:06;93901.41;;;25.19;71.56
10606;BME280;5350;42.698;23.148;2022-09-09T08:28:34;93895.38;;;25.36;71.18
10606;BME280;5350;42.698;23.148;2022-09-09T08:31:07;93897.75;;;25.41;70.70
10606;BME280;5350;42.698;23.148;2022-09-09T08:33:34;93909.69;;;25.47;74.25
10606;BME280;5350;42.698;23.148;2022-09-09T08:36:02;93906.72;;;25.59;68.29
10606;BME280;5350;42.698;23.148;2022-09-09T08:38:30;93901.28;;;25.56;67.03
10606;BME280;5350;42.698;23.148;2022-09-09T08:40:58;93887.06;;;25.55;70.87
10606;BME280;5350;42.698;23.148;2022-09-09T08:43:31;93883.56;;;25.48;71.25
10606;BME280;5350;42.698;23.148;2022-09-09T08:45:59;93891.06;;;25.82;68.34
10606;BME280;5350;42.698;23.148;2022-09-09T08:48:36;93892.25;;;25.88;65.65
10606;BME280;5350;42.698;23.148;2022-09-09T08:51:07;93886.09;;;25.91;67.40
10606;BME280;5350;42.698;23.148;2022-09-09T08:53:37;93886.16;;;26.05;66.81
10606;BME280;5350;42.698;23.148;2022-09-09T08:56:08;93895.53;;;26.40;63.95
10606;BME280;5350;42.698;23.148;2022-09-09T08:58:39;93887.81;;;26.24;64.39
10606;BME280;5350;42.698;23.148;2022-09-09T09:01:21;93890.16;;;26.36;65.05
10606;BME280;5350;42.698;23.148;2022-09-09T09:03:53;93896.75;;;26.53;65.73
10606;BME280;5350;42.698;23.148;2022-09-09T09:06:26;93898.28;;;26.61;61.12
10606;BME280;5350;42.698;23.148;2022-09-09T09:09:05;93893.28;;;26.59;64.78
10606;BME280;5350;42.698;23.148;2022-09-09T09:11:35;93887.53;;;26.75;69.60
10606;BME280;5350;42.698;23.148;2022-09-09T09:14:02;93895.66;;;26.85;65.28
10606;BME280;5350;42.698;23.148;2022-09-09T09:16:30;93883.34;;;27.06;62.75
10606;BME280;5350;42.698;23.148;2022-09-09T09:18:59;93876.78;;;27.24;63.09
10606;BME280;5350;42.698;23.148;2022-09-09T09:21:29;93877.56;;;27.39;59.56
10606;BME280;5350;42.698;23.148;2022-09-09T09:23:59;93876.72;;;27.66;59.70
10606;BME280;5350;42.698;23.148;2022-09-09T09:26:29;93870.88;;;27.82;59.82
10606;BME280;5350;42.698;23.148;2022-09-09T09:28:56;93861.22;;;27.99;60.01
10606;BME280;5350;42.698;23.148;2022-09-09T09:31:25;93858.81;;;28.15;57.53
10606;BME280;5350;42.698;23.148;2022-09-09T09:33:53;93849.97;;;28.04;60.55
10606;BME280;5350;42.698;23.148;2022-09-09T09:36:20;93856.94;;;28.05;59.10
10606;BME280;5350;42.698;23.148;2022-09-09T09:38:54;93855.38;;;28.04;61.33
10606;BME280;5350;42.698;23.148;2022-09-09T09:44:19;93857.06;;;27.66;58.59
10606;BME280;5350;42.698;23.148;2022-09-09T09:46:48;93851.22;;;27.75;58.38
10606;BME280;5350;42.698;23.148;2022-09-09T09:49:14;93851.59;;;27.73;59.76
10606;BME280;5350;42.698;23.148;2022-09-09T09:51:41;93858.94;;;27.69;59.43
10606;BME280;5350;42.698;23.148;2022-09-09T09:54:09;93849.75;;;27.45;57.03
10606;BME280;5350;42.698;23.148;2022-09-09T09:56:40;93852.84;;;27.40;59.63
10606;BME280;5350;42.698;23.148;2022-09-09T09:59:19;93854.78;;;27.47;58.71
10606;BME280;5350;42.698;23.148;2022-09-09T10:01:46;93859.78;;;27.38;58.02
10606;BME280;5350;42.698;23.148;2022-09-09T10:04:14;93867.09;;;27.34;57.89
10606;BME280;5350;42.698;23.148;2022-09-09T10:06:43;93860.19;;;27.15;61.53
10606;BME280;5350;42.698;23.148;2022-09-09T10:09:20;93857.50;;;27.15;62.49
10606;BME280;5350;42.698;23.148;2022-09-09T10:11:48;93861.31;;;27.25;59.74
10606;BME280;5350;42.698;23.148;2022-09-09T10:14:20;93867.88;;;27.17;61.98
10606;BME280;5350;42.698;23.148;2022-09-09T10:16:51;93871.38;;;27.14;61.09
10606;BME280;5350;42.698;23.148;2022-09-09T10:19:26;93871.34;;;27.21;63.26
10606;BME280;5350;42.698;23.148;2022-09-09T10:21:57;93871.72;;;27.33;64.14
10606;BME280;5350;42.698;23.148;2022-09-09T10:24:47;93866.31;;;27.33;60.82
10606;BME280;5350;42.698;23.148;2022-09-09T10:27:19;93870.63;;;27.34;62.52
10606;BME280;5350;42.698;23.148;2022-09-09T10:29:51;93877.91;;;27.27;58.90
10606;BME280;5350;42.698;23.148;2022-09-09T10:32:33;93879.47;;;27.24;61.82
10606;BME280;5350;42.698;23.148;2022-09-09T10:35:02;93884.84;;;27.21;63.42
10606;BME280;5350;42.698;23.148;2022-09-09T10:37:35;93882.94;;;27.28;62.44
10606;BME280;5350;42.698;23.148;2022-09-09T10:40:08;93877.94;;;27.37;63.59
10606;BME280;5350;42.698;23.148;2022-09-09T10:42:41;93879.88;;;27.40;61.63
10606;BME280;5350;42.698;23.148;2022-09-09T10:45:14;93890.66;;;27.30;61.28
10606;BME280;5350;42.698;23.148;2022-09-09T10:47:59;93881.78;;;27.22;63.82
10606;BME280;5350;42.698;23.148;2022-09-09T10:53:12;93882.94;;;27.21;60.72
10606;BME280;5350;42.698;23.148;2022-09-09T10:55:41;93876.78;;;27.38;57.99
10606;BME280;5350;42.698;23.148;2022-09-09T10:58:10;93881.03;;;27.36;59.21
10606;BME280;5350;42.698;23.148;2022-09-09T11:00:40;93884.88;;;27.38;59.58
10606;BME280;5350;42.698;23.148;2022-09-09T11:03:11;93880.63;;;27.16;59.80
10606;BME280;5350;42.698;23.148;2022-09-09T11:05:44;93877.16;;;27.12;59.86
10606;BME280;5350;42.698;23.148;2022-09-09T11:08:14;93877.91;;;27.13;59.71
10606;BME280;5350;42.698;23.148;2022-09-09T11:10:42;93873.31;;;27.45;57.72
10606;BME280;5350;42.698;23.148;2022-09-09T11:13:14;93866.34;;;27.40;59.53
10606;BME280;5350;42.698;23.148;2022-09-09T11:15:44;93861.72;;;27.37;59.24
10606;BME280;5350;42.698;23.148;2022-09-09T11:18:13;93858.59;;;27.60;60.03
10606;BME280;5350;42.698;23.148;2022-09-09T11:20:42;93847.72;;;27.78;60.85
10606;BME280;5350;42.698;23.148;2022-09-09T11:23:09;93849.25;;;27.86;63.82
10606;BME280;5350;42.698;23.148;2022-09-09T11:25:39;93836.47;;;28.00;60.43
10606;BME280;5350;42.698;23.148;2022-09-09T11:28:14;93832.16;;;28.13;58.00
10606;BME280;5350;42.698;23.148;2022-09-09T11:30:50;93810.59;;;27.96;57.74
10606;BME280;5350;42.698;23.148;2022-09-09T11:33:26;93819.56;;;27.79;62.01
10606;BME280;5350;42.698;23.148;2022-09-09T11:36:01;93807.94;;;27.89;61.57
10606;BME280;5350;42.698;23.148;2022-09-09T11:38:36;93795.94;;;27.97;61.45
10606;BME280;5350;42.698;23.148;2022-09-09T11:41:07;93789.16;;;27.46;62.45
10606;BME280;5350;42.698;23.148;2022-09-09T11:43:38;93790.75;;;27.19;62.91
10606;BME280;5350;42.698;23.148;2022-09-09T11:46:07;93786.91;;;27.20;67.77
10606;BME280;5350;42.698;23.148;2022-09-09T11:48:35;93794.22;;;27.23;66.79
10606;BME280;5350;42.698;23.148;2022-09-09T11:51:03;93794.19;;;27.44;70.77
10606;BME280;5350;42.698;23.148;2022-09-09T11:53:30;93792.88;;;27.84;68.48
10606;BME280;5350;42.698;23.148;2022-09-09T11:56:01;93792.44;;;28.00;61.39
10606;BME280;5350;42.698;23.148;2022-09-09T11:58:28;93791.41;;;27.65;65.42
10606;BME280;5350;42.698;23.148;2022-09-09T12:00:58;93775.66;;;27.29;64.69
10606;BME280;5350;42.698;23.148;2022-09-09T12:03:34;93777.97;;;27.34;67.79
10606;BME280;5350;42.698;23.148;2022-09-09T12:06:08;93765.63;;;27.33;66.30
10606;BME280;5350;42.698;23.148;2022-09-09T12:08:36;93764.16;;;27.07;67.34
10606;BME280;5350;42.698;23.148;2022-09-09T12:11:03;93755.31;;;26.96;70.12
10606;BME280;5350;42.698;23.148;2022-09-09T12:13:30;93774.94;;;27.14;67.02
10606;BME280;5350;42.698;23.148;2022-09-09T12:15:57;93763.69;;;27.44;68.08
10606;BME280;5350;42.698;23.148;2022-09-09T12:18:25;93760.09;;;27.75;66.49
10606;BME280;5350;42.698;23.148;2022-09-09T12:20:56;93751.25;;;27.71;65.00
10606;BME280;5350;42.698;23.148;2022-09-09T12:23:31;93756.13;;;28.01;65.16
10606;BME280;5350;42.698;23.148;2022-09-09T12:26:04;93763.00;;;28.16;64.84
10606;BME280;5350;42.698;23.148;2022-09-09T12:28:39;93769.53;;;28.18;62.23
10606;BME280;5350;42.698;23.148;2022-09-09T12:31:08;93765.50;;;27.79;63.55
10606;BME280;5350;42.698;23.148;2022-09-09T12:33:39;93755.16;;;27.59;66.19
10606;BME280;5350;42.698;23.148;2022-09-09T12:36:11;93747.91;;;27.25;65.40
10606;BME280;5350;42.698;23.148;2022-09-09T12:38:39;93749.88;;;27.00;68.30
10606;BME280;5350;42.698;23.148;2022-09-09T12:41:06;93746.84;;;26.73;68.70
10606;BME280;5350;42.698;23.148;2022-09-09T12:43:32;93742.22;;;26.70;71.81
10606;BME280;5350;42.698;23.148;2022-09-09T12:45:59;93735.66;;;26.85;73.79
10606;BME280;5350;42.698;23.148;2022-09-09T12:48:28;93726.31;;;27.25;67.60
10606;BME280;5350;42.698;23.148;2022-09-09T12:50:57;93734.50;;;26.89;70.90
10606;BME280;5350;42.698;23.148;2022-09-09T12:53:26;93725.25;;;26.90;69.75
10606;BME280;5350;42.698;23.148;2022-09-09T12:55:54;93729.13;;;26.82;69.15
10606;BME280;5350;42.698;23.148;2022-09-09T12:58:22;93727.59;;;26.78;69.48
10606;BME280;5350;42.698;23.148;2022-09-09T13:00:50;93729.88;;;26.20;69.62
10606;BME280;5350;42.698;23.148;2022-09-09T13:03:18;93730.97;;;26.04;70.50
10606;BME280;5350;42.698;23.148;2022-09-09T13:05:45;93723.25;;;25.96;73.86
10606;BME280;5350;42.698;23.148;2022-09-09T13:08:13;93714.09;;;26.07;72.44
10606;BME280;5350;42.698;23.148;2022-09-09T13:10:43;93723.66;;;25.91;72.35
10606;BME280;5350;42.698;23.148;2022-09-09T13:13:13;93719.75;;;25.74;71.21
10606;BME280;5350;42.698;23.148;2022-09-09T13:15:40;93720.47;;;25.57;74.09